createdAt,value
2022-08-02T00:00:57.139Z,3.47
2022-08-02T00:05:59.650Z,3.45
2022-08-02T00:11:02.260Z,3.05
2022-08-02T00:16:05.336Z,3.13
2022-08-02T00:21:08.017Z,3.30
2022-08-02T00:26:10.507Z,3.47
2022-08-02T00:31:13.171Z,3.63
2022-08-02T00:36:16.243Z,3.40
2022-08-02T00:41:21.004Z,2.55
2022-08-02T00:46:23.570Z,3.40
2022-08-02T00:51:26.171Z,3.20
2022-08-02T00:56:28.672Z,3.60
2022-08-02T01:01:56.141Z,3.63
2022-08-02T01:07:12.007Z,2.78
2022-08-02T01:12:16.089Z,3.20
2022-08-02T01:17:30.378Z,3.50
2022-08-02T01:23:00.993Z,3.38
2022-08-02T01:28:26.055Z,3.53
2022-08-02T01:33:36.575Z,3.45
2022-08-02T01:38:50.917Z,2.85
2022-08-02T01:43:56.863Z,3.30
2022-08-02T01:49:00.686Z,3.40
2022-08-02T01:54:03.514Z,3.03
2022-08-02T01:59:06.406Z,3.47
2022-08-02T02:04:09.482Z,3.13
2022-08-02T02:09:13.428Z,2.65
2022-08-02T02:14:17.040Z,3.03
2022-08-02T02:19:22.690Z,2.88
2022-08-02T02:24:25.201Z,2.67
2022-08-02T02:29:29.512Z,2.63
2022-08-02T02:34:38.485Z,2.85
2022-08-02T02:39:42.368Z,3.00
2022-08-02T02:44:47.577Z,2.45
2022-08-02T02:49:51.511Z,2.95
2022-08-02T02:54:54.702Z,3.20
2022-08-02T02:59:57.255Z,2.83
2022-08-02T03:05:02.965Z,3.20
2022-08-02T03:10:06.998Z,3.97
2022-08-02T03:15:13.864Z,3.22
2022-08-02T03:20:20.236Z,2.97
2022-08-02T03:25:22.682Z,3.25
2022-08-02T03:30:27.816Z,3.22
2022-08-02T03:35:30.505Z,2.90
2022-08-02T03:40:33.341Z,2.65
2022-08-02T03:45:37.139Z,2.97
2022-08-02T03:50:40.317Z,2.90
2022-08-02T03:55:42.941Z,3.03
2022-08-02T04:00:45.632Z,2.60
2022-08-02T04:06:03.379Z,3.22
2022-08-02T04:11:26.105Z,3.28
2022-08-02T04:16:49.243Z,3.60
2022-08-02T04:21:52.658Z,3.33
2022-08-02T04:27:03.420Z,3.67
2022-08-02T04:32:22.883Z,3.90
2022-08-02T04:37:26.524Z,4.00
2022-08-02T04:42:29.945Z,3.47
2022-08-02T04:48:02.391Z,3.45
2022-08-02T04:52:54.829Z,3.58
2022-08-02T04:57:58.330Z,3.38
2022-08-02T05:03:01.457Z,3.40
2022-08-02T05:08:04.235Z,3.45
2022-08-02T05:13:07.070Z,3.10
2022-08-02T05:18:09.679Z,3.00
2022-08-02T05:23:12.368Z,3.20
2022-08-02T05:28:14.903Z,3.55
2022-08-02T05:33:17.396Z,2.97
2022-08-02T05:38:19.861Z,3.28
2022-08-02T05:43:28.419Z,3.60
2022-08-02T05:48:32.250Z,2.85
2022-08-02T05:53:47.697Z,2.85
2022-08-02T05:59:24.307Z,2.95
2022-08-02T06:04:33.331Z,2.22
2022-08-02T06:09:36.201Z,2.33
2022-08-02T06:14:38.577Z,2.58
2022-08-02T06:19:51.947Z,2.65
2022-08-02T06:24:56.828Z,3.25
2022-08-02T06:29:59.563Z,3.00
2022-08-02T06:35:05.742Z,2.80
2022-08-02T06:40:28.117Z,2.60
2022-08-02T06:45:30.490Z,2.72
2022-08-02T06:50:33.377Z,2.65
2022-08-02T06:55:43.638Z,2.55
2022-08-02T07:00:47.369Z,2.90
2022-08-02T07:05:49.746Z,2.65
2022-08-02T07:10:52.424Z,2.72
2022-08-02T07:15:55.917Z,2.05
2022-08-02T07:20:58.391Z,2.30
2022-08-02T07:26:03.269Z,2.00
2022-08-02T07:31:07.046Z,1.95
2022-08-02T07:36:17.037Z,2.10
2022-08-02T07:41:25.043Z,1.77
2022-08-02T07:46:27.825Z,2.15
2022-08-02T07:51:33.225Z,2.17
2022-08-02T07:56:35.725Z,2.10
2022-08-02T08:01:38.238Z,2.40
2022-08-02T08:06:49.756Z,2.63
2022-08-02T08:11:52.206Z,1.70
2022-08-02T08:16:54.551Z,1.50
2022-08-02T08:21:56.957Z,1.80
2022-08-02T08:26:59.407Z,1.80
2022-08-02T08:32:01.882Z,2.60
2022-08-02T08:37:04.449Z,2.22
2022-08-02T08:42:08.870Z,2.85
2022-08-02T08:47:12.005Z,1.75
2022-08-02T08:52:15.194Z,2.00
2022-08-02T08:57:19.431Z,2.08
2022-08-02T09:02:26.014Z,1.77
2022-08-02T09:07:30.460Z,2.00
2022-08-02T09:12:32.990Z,1.70
2022-08-02T09:17:35.410Z,1.98
2022-08-02T09:22:38.107Z,1.90
2022-08-02T09:27:40.558Z,1.80
2022-08-02T09:32:48.253Z,1.58
2022-08-02T09:37:50.827Z,1.30
2022-08-02T09:42:59.697Z,1.67
2022-08-02T09:48:11.318Z,1.67
2022-08-02T09:53:14.362Z,0.80
2022-08-02T09:58:21.090Z,1.00
2022-08-02T10:03:25.969Z,1.00
2022-08-02T10:08:37.388Z,1.30
2022-08-02T10:13:39.875Z,1.55
2022-08-02T10:18:42.204Z,1.30
2022-08-02T10:23:46.388Z,1.27
2022-08-02T10:28:50.176Z,1.73
2022-08-02T10:33:53.610Z,1.35
2022-08-02T10:38:58.816Z,1.45
2022-08-02T10:44:01.689Z,1.40
2022-08-02T10:49:38.180Z,1.13
2022-08-02T10:54:41.731Z,1.15
2022-08-02T10:59:45.124Z,1.88
2022-08-02T11:04:47.624Z,1.55
2022-08-02T11:09:51.313Z,1.20
2022-08-02T11:15:04.020Z,1.05
2022-08-02T11:20:13.150Z,1.25
2022-08-02T11:25:24.517Z,1.17
2022-08-02T11:30:27.938Z,1.00
2022-08-02T11:35:41.053Z,0.90
2022-08-02T11:40:44.144Z,1.17
2022-08-02T11:45:46.863Z,1.20
2022-08-02T11:50:49.498Z,1.13
2022-08-02T11:55:57.709Z,1.23
2022-08-02T12:01:00.742Z,0.88
2022-08-02T12:06:06.863Z,1.30
2022-08-02T12:11:13.434Z,1.30
2022-08-02T12:16:34.700Z,1.17
2022-08-02T12:21:37.097Z,1.23
2022-08-02T12:26:46.598Z,1.10
2022-08-02T12:31:56.524Z,1.27
2022-08-02T12:37:08.763Z,1.08
2022-08-02T12:42:15.720Z,0.88
2022-08-02T12:47:18.440Z,1.10
2022-08-02T12:52:24.953Z,0.95
2022-08-02T12:57:27.454Z,1.23
2022-08-02T13:02:31.397Z,1.10
2022-08-02T13:07:33.833Z,1.02
2022-08-02T13:12:37.544Z,1.00
2022-08-02T13:17:40.287Z,0.75
2022-08-02T13:22:52.906Z,1.30
2022-08-02T13:27:56.150Z,1.00
2022-08-02T13:33:01.129Z,1.20
2022-08-02T13:38:04.668Z,0.95
2022-08-02T13:43:07.186Z,1.10
2022-08-02T13:48:16.626Z,1.20
2022-08-02T13:53:20.928Z,1.02
2022-08-02T13:58:23.471Z,1.10
2022-08-02T14:03:26.498Z,1.17
2022-08-02T14:08:49.612Z,1.65
2022-08-02T14:13:52.031Z,1.10
2022-08-02T14:18:54.409Z,1.20
2022-08-02T14:23:56.894Z,0.90
2022-08-02T14:28:59.329Z,1.00
2022-08-02T14:34:01.914Z,1.08
2022-08-02T14:39:04.537Z,1.27
2022-08-02T14:44:09.771Z,1.33
2022-08-02T14:49:14.119Z,1.40
2022-08-02T14:54:17.314Z,1.38
2022-08-02T14:59:20.773Z,1.55
2022-08-02T15:04:23.386Z,1.10
2022-08-02T15:09:26.344Z,1.17
2022-08-02T15:14:28.767Z,1.15
2022-08-02T15:19:56.079Z,1.00
2022-08-02T15:24:54.284Z,1.10
2022-08-02T15:30:00.880Z,1.02
2022-08-02T15:35:03.561Z,0.90
2022-08-02T15:40:06.670Z,1.02
2022-08-02T15:45:13.210Z,1.00
2022-08-02T15:50:18.813Z,1.05
2022-08-02T15:55:21.358Z,1.10
2022-08-02T16:00:23.767Z,1.00
2022-08-02T16:05:26.354Z,0.90
2022-08-02T16:10:29.003Z,1.45
2022-08-02T16:15:31.459Z,1.15
2022-08-02T16:20:33.886Z,1.33
2022-08-02T16:25:41.541Z,1.00
2022-08-02T16:30:54.336Z,1.10
2022-08-02T16:36:06.954Z,0.75
2022-08-02T16:41:10.458Z,1.23
2022-08-02T16:46:13.034Z,1.00
2022-08-02T16:51:15.638Z,1.10
2022-08-02T16:56:18.149Z,1.40
2022-08-02T17:01:27.451Z,1.30
2022-08-02T17:06:30.487Z,1.35
2022-08-02T17:11:33.124Z,1.02
2022-08-02T17:16:35.635Z,1.10
2022-08-02T17:21:38.808Z,1.20
2022-08-02T17:26:41.200Z,1.10
2022-08-02T17:32:02.371Z,1.10
2022-08-02T17:37:08.996Z,1.30
2022-08-02T17:42:11.663Z,2.45
2022-08-02T17:47:22.824Z,4.07
2022-08-02T17:52:51.281Z,1.60
2022-08-02T17:57:58.692Z,1.75
2022-08-02T18:03:05.991Z,2.05
2022-08-02T18:08:10.225Z,1.77
2022-08-02T18:13:16.557Z,3.08
2022-08-02T18:18:30.020Z,3.20
2022-08-02T18:23:32.773Z,2.35
2022-08-02T18:28:40.553Z,1.90
2022-08-02T18:33:57.556Z,3.45
2022-08-02T18:39:08.231Z,3.45
2022-08-02T18:44:11.490Z,3.45
2022-08-02T18:49:18.464Z,2.65
2022-08-02T18:54:30.641Z,3.00
2022-08-02T18:59:43.375Z,2.42
2022-08-02T19:04:54.352Z,3.13
2022-08-02T19:09:58.538Z,2.75
2022-08-02T19:15:01.969Z,7.90
2022-08-02T19:20:05.932Z,5.78
2022-08-02T19:25:09.149Z,2.92
2022-08-02T19:30:17.259Z,3.30
2022-08-02T19:40:42.402Z,3.40
2022-08-02T19:45:49.999Z,5.10
2022-08-02T19:51:00.797Z,4.35
2022-08-02T19:56:04.424Z,3.78
2022-08-02T20:01:07.771Z,5.13
2022-08-02T20:06:19.427Z,5.35
2022-08-02T20:11:24.558Z,3.13
2022-08-02T20:16:32.674Z,3.45
2022-08-02T20:21:37.842Z,2.90
2022-08-02T20:26:47.516Z,4.47
2022-08-02T20:31:50.737Z,5.03
2022-08-02T20:36:54.162Z,3.38
2022-08-02T20:41:58.997Z,4.53
2022-08-02T20:47:03.209Z,3.90
2022-08-02T20:52:24.117Z,4.78
2022-08-02T20:57:49.081Z,4.07
2022-08-02T21:02:50.581Z,4.53
2022-08-02T21:07:55.026Z,3.80
2022-08-02T21:12:57.531Z,3.83
2022-08-02T21:18:05.738Z,3.80
2022-08-02T21:23:19.887Z,3.60
2022-08-02T21:28:22.867Z,4.22
2022-08-02T21:33:25.635Z,3.85
2022-08-02T21:38:35.415Z,3.85
2022-08-02T21:43:43.937Z,4.40
2022-08-02T21:48:47.005Z,3.55
2022-08-02T21:54:18.474Z,4.15
2022-08-02T21:59:15.887Z,4.20
2022-08-02T22:04:19.422Z,3.53
2022-08-02T22:09:43.201Z,5.32
2022-08-02T22:14:53.766Z,7.28
2022-08-02T22:19:58.290Z,5.10
2022-08-02T22:25:01.227Z,6.20
2022-08-02T22:30:08.213Z,6.00
2022-08-02T22:35:12.391Z,5.50
2022-08-02T22:40:14.847Z,7.45
2022-08-02T22:45:18.210Z,7.13
2022-08-02T22:50:21.409Z,6.43
2022-08-02T22:55:24.533Z,13.65
2022-08-02T22:58:52.547Z,3.63
2022-08-02T23:00:35.028Z,9.25
2022-08-02T23:05:39.260Z,7.35
2022-08-02T23:10:43.101Z,6.53
2022-08-02T23:16:05.221Z,6.40
2022-08-02T23:21:07.959Z,6.60
2022-08-02T23:26:10.570Z,6.93
2022-08-02T23:31:30.104Z,6.28
2022-08-02T23:36:33.238Z,6.07
2022-08-02T23:41:36.614Z,7.25
2022-08-02T23:46:47.042Z,6.57
2022-08-02T23:51:51.372Z,7.53
2022-08-02T23:56:54.247Z,7.30
